Time;durP1;ratioP1;P1;durP2;ratioP2;P2;SDS_P1;SDS_P2;PMS_P1;PMS_P2;Temp;Humidity;BMP_temperature;BMP_pressure;BME280_temperature;BME280_humidity;BME280_pressure;Samples;Min_cycle;Max_cycle;Signal;HPM_P1;HPM_P2
2022/12/02 00:02:17;;;;;;;;;;;;;;;9.87;50.91;95548.69;5070790;28;20018;-65
2022/12/02 00:04:42;;;;;;;;;;;;;;;9.87;50.92;95549.47;5069390;28;20493;-65
2022/12/02 00:07:11;;;;;;;;;;;;;;;9.86;50.71;95544.47;5070391;28;20009;-64
2022/12/02 00:09:37;;;;;;;;;;;;;;;9.84;50.66;95550.06;5068546;28;20118;-65
2022/12/02 00:12:17;;;;;;;;;;;;;;;9.77;50.45;95544.31;5070496;28;20045;-65
2022/12/02 00:14:42;;;;;;;;;;;;;;;9.71;50.74;95540.16;5070467;28;20009;-65
2022/12/02 00:17:08;;;;;;;;;;;;;;;9.72;50.79;95543.59;5068789;28;20401;-65
2022/12/02 00:19:33;;;;;;;;;;;;;;;9.73;50.89;95534.59;5070398;28;20107;-65
2022/12/02 00:21:58;;;;;;;;;;;;;;;9.71;51.43;95539.38;5068416;28;20021;-65
2022/12/02 00:24:23;;;;;;;;;;;;;;;9.74;50.87;95536.94;5070260;28;20008;-65
2022/12/02 00:26:48;;;;;;;;;;;;;;;9.76;51.07;95534.78;5069933;28;20020;-64
2022/12/02 00:29:14;;;;;;;;;;;;;;;9.81;50.69;95532.03;5070143;28;20013;-65
2022/12/02 00:31:39;;;;;;;;;;;;;;;9.84;51.01;95534.13;5068550;28;20457;-65
2022/12/02 00:34:04;;;;;;;;;;;;;;;9.80;50.48;95527.81;5070169;28;20643;-65
2022/12/02 00:36:29;;;;;;;;;;;;;;;9.77;50.44;95528.38;5069637;28;20108;-65
2022/12/02 00:38:55;;;;;;;;;;;;;;;9.78;51.62;95534.50;5068339;28;20112;-65
2022/12/02 00:41:21;;;;;;;;;;;;;;;9.79;51.29;95525.44;5070202;28;20419;-65
2022/12/02 00:46:36;;;;;;;;;;;;;;;9.44;50.87;95526.75;5070090;28;20027;-66
2022/12/02 00:49:08;;;;;;;;;;;;;;;9.06;52.12;95522.19;5067314;28;20620;-66
2022/12/02 00:51:34;;;;;;;;;;;;;;;9.14;52.45;95517.31;5065607;28;20122;-65
2022/12/02 00:53:59;;;;;;;;;;;;;;;9.21;52.19;95518.53;5069935;28;20478;-65
2022/12/02 00:56:25;;;;;;;;;;;;;;;8.94;52.58;95519.16;5069387;28;20010;-65
2022/12/02 00:58:50;;;;;;;;;;;;;;;7.88;56.14;95520.94;5069966;28;20511;-65
2022/12/02 01:01:15;;;;;;;;;;;;;;;7.36;58.63;95525.81;5067382;28;20060;-65
2022/12/02 01:03:40;;;;;;;;;;;;;;;7.85;56.94;95526.81;5070099;28;20485;-65
2022/12/02 01:06:06;;;;;;;;;;;;;;;7.76;56.85;95527.41;5068163;28;20100;-65
2022/12/02 01:08:31;;;;;;;;;;;;;;;8.30;56.32;95523.78;5068435;28;20124;-65
2022/12/02 01:10:57;;;;;;;;;;;;;;;8.36;55.62;95523.72;5068291;28;20029;-65
2022/12/02 01:13:23;;;;;;;;;;;;;;;8.52;55.50;95525.19;5068703;28;20832;-66
2022/12/02 01:15:48;;;;;;;;;;;;;;;8.25;55.81;95521.19;5068195;28;20013;-65
2022/12/02 01:18:13;;;;;;;;;;;;;;;8.33;55.98;95519.78;5068409;28;20017;-66
2022/12/02 01:20:39;;;;;;;;;;;;;;;8.37;55.96;95520.81;5068162;28;20021;-66
2022/12/02 01:23:04;;;;;;;;;;;;;;;8.39;55.57;95516.03;5068319;28;20369;-65
2022/12/02 01:25:29;;;;;;;;;;;;;;;8.26;55.81;95517.44;5067395;28;20038;-66
2022/12/02 01:27:54;;;;;;;;;;;;;;;8.53;54.97;95511.63;5069451;28;20190;-66
2022/12/02 01:30:19;;;;;;;;;;;;;;;8.35;55.15;95509.69;5069765;28;20024;-64
2022/12/02 01:32:45;;;;;;;;;;;;;;;8.39;55.37;95507.28;5069480;28;20084;-65
2022/12/02 01:35:10;;;;;;;;;;;;;;;8.57;55.31;95507.38;5067824;28;20013;-65
2022/12/02 01:37:35;;;;;;;;;;;;;;;8.38;55.02;95503.84;5068771;28;20020;-65
2022/12/02 01:40:01;;;;;;;;;;;;;;;8.56;54.96;95505.78;5068243;28;20420;-65
2022/12/02 01:42:26;;;;;;;;;;;;;;;8.53;54.85;95502.91;5069466;28;20059;-65
2022/12/02 01:44:51;;;;;;;;;;;;;;;8.51;54.97;95505.06;5068336;28;20009;-66
2022/12/02 01:47:16;;;;;;;;;;;;;;;8.52;54.96;95503.97;5069175;28;20116;-65
2022/12/02 01:49:41;;;;;;;;;;;;;;;8.22;55.80;95500.53;5069301;28;20021;-64
2022/12/02 01:52:07;;;;;;;;;;;;;;;7.95;57.35;95503.69;5071312;28;20017;-65
2022/12/02 01:54:33;;;;;;;;;;;;;;;8.13;56.88;95499.53;5071095;28;20059;-65
2022/12/02 01:56:58;;;;;;;;;;;;;;;7.81;57.54;95502.75;5071109;28;20515;-64
2022/12/02 01:59:24;;;;;;;;;;;;;;;7.65;58.37;95504.72;5072346;28;20108;-65
2022/12/02 02:01:49;;;;;;;;;;;;;;;8.05;57.75;95505.47;5071550;28;20127;-65
2022/12/02 02:04:14;;;;;;;;;;;;;;;8.15;57.50;95501.94;5072978;28;20013;-65
2022/12/02 02:06:41;;;;;;;;;;;;;;;8.40;56.83;95504.38;5070196;28;20021;-64
2022/12/02 02:09:07;;;;;;;;;;;;;;;8.53;56.86;95495.72;5071523;28;20024;-64
2022/12/02 02:11:33;;;;;;;;;;;;;;;8.70;56.44;95494.50;5071449;28;20076;-64
2022/12/02 02:13:59;;;;;;;;;;;;;;;8.68;55.75;95494.78;5071657;28;20504;-64
2022/12/02 02:16:24;;;;;;;;;;;;;;;7.90;57.62;95492.34;5071234;28;20136;-64
2022/12/02 02:18:49;;;;;;;;;;;;;;;7.47;59.17;95492.13;5071817;28;20017;-65
2022/12/02 02:21:19;;;;;;;;;;;;;;;7.78;58.62;95488.22;5071663;28;20170;-65
2022/12/02 02:23:44;;;;;;;;;;;;;;;7.77;58.55;95496.41;5072837;28;20009;-63
2022/12/02 02:26:10;;;;;;;;;;;;;;;8.10;57.79;95486.88;5072561;28;20009;-63
2022/12/02 02:28:35;;;;;;;;;;;;;;;8.35;57.29;95483.19;5072755;28;20016;-63
2022/12/02 02:31:00;;;;;;;;;;;;;;;8.18;57.21;95480.94;5070094;28;20385;-65
2022/12/02 02:33:27;;;;;;;;;;;;;;;8.29;57.43;95485.09;5071380;28;20014;-64
2022/12/02 02:35:52;;;;;;;;;;;;;;;8.59;56.68;95491.94;5072374;28;20504;-64
2022/12/02 02:38:20;;;;;;;;;;;;;;;8.79;56.34;95476.88;5072431;28;20013;-63
2022/12/02 02:40:45;;;;;;;;;;;;;;;8.32;56.91;95489.03;5071316;28;20492;-64
2022/12/02 02:43:11;;;;;;;;;;;;;;;8.19;57.87;95479.09;5071709;28;20017;-63
2022/12/02 02:45:38;;;;;;;;;;;;;;;8.25;57.03;95483.28;5071125;28;20022;-64
2022/12/02 02:48:05;;;;;;;;;;;;;;;8.57;56.80;95472.09;5072436;28;20016;-63
2022/12/02 02:50:31;;;;;;;;;;;;;;;8.28;57.08;95470.25;5070322;28;20497;-64
2022/12/02 02:52:56;;;;;;;;;;;;;;;8.57;56.58;95475.53;5072206;28;20103;-64
2022/12/02 02:55:23;;;;;;;;;;;;;;;8.21;57.23;95472.44;5070437;28;20066;-63
2022/12/02 02:57:48;;;;;;;;;;;;;;;8.30;56.99;95470.78;5070782;28;20014;-63
2022/12/02 03:00:14;;;;;;;;;;;;;;;8.56;56.71;95473.19;5069943;28;20025;-64
2022/12/02 03:02:39;;;;;;;;;;;;;;;8.27;56.97;95466.03;5069699;28;20511;-63
2022/12/02 03:05:05;;;;;;;;;;;;;;;8.20;57.28;95465.56;5071411;28;20013;-63
2022/12/02 03:07:30;;;;;;;;;;;;;;;8.35;57.04;95467.28;5071932;28;20012;-64
2022/12/02 03:09:56;;;;;;;;;;;;;;;8.03;57.41;95465.19;5069306;28;20104;-63
2022/12/02 03:12:21;;;;;;;;;;;;;;;7.95;58.47;95458.66;5071236;28;20017;-64
2022/12/02 03:14:47;;;;;;;;;;;;;;;7.84;58.78;95461.69;5071515;28;20010;-65
2022/12/02 03:17:12;;;;;;;;;;;;;;;7.29;60.32;95467.09;5071442;28;20479;-64
2022/12/02 03:19:38;;;;;;;;;;;;;;;7.25;60.72;95455.50;5071073;28;20053;-64
2022/12/02 03:22:04;;;;;;;;;;;;;;;7.63;59.46;95456.56;5071881;28;20013;-62
2022/12/02 03:24:30;;;;;;;;;;;;;;;7.77;59.19;95462.78;5071855;28;20472;-64
2022/12/02 03:26:56;;;;;;;;;;;;;;;7.45;59.71;95454.56;5086597;28;20045;-66
2022/12/02 03:29:21;;;;;;;;;;;;;;;7.64;59.78;95458.13;5070509;28;20013;-64
2022/12/02 03:31:46;;;;;;;;;;;;;;;7.83;59.40;95455.59;5070082;28;20024;-64
2022/12/02 03:34:12;;;;;;;;;;;;;;;7.65;59.60;95457.06;5071545;28;20010;-64
2022/12/02 03:36:38;;;;;;;;;;;;;;;7.61;59.28;95452.59;5070991;28;20531;-62
2022/12/02 03:39:04;;;;;;;;;;;;;;;7.67;60.04;95452.25;5069879;28;20013;-62
2022/12/02 03:41:29;;;;;;;;;;;;;;;8.00;59.33;95449.88;5070333;28;20017;-63
2022/12/02 03:43:56;;;;;;;;;;;;;;;7.75;59.21;95448.25;5071233;28;20054;-63
2022/12/02 03:46:21;;;;;;;;;;;;;;;7.19;60.73;95451.31;5069613;28;20098;-63
2022/12/02 03:48:46;;;;;;;;;;;;;;;7.20;61.20;95447.59;5070964;28;20062;-64
2022/12/02 03:51:12;;;;;;;;;;;;;;;7.60;60.85;95446.50;5070103;28;20021;-63
2022/12/02 03:53:38;;;;;;;;;;;;;;;7.09;60.77;95449.50;5071014;28;20044;-63
2022/12/02 03:56:04;;;;;;;;;;;;;;;7.14;60.83;95449.47;5069484;28;20114;-64
2022/12/02 03:58:34;;;;;;;;;;;;;;;7.12;61.58;95445.53;5070967;28;20039;-64
2022/12/02 04:00:59;;;;;;;;;;;;;;;6.77;62.17;95440.16;5068818;28;20113;-63
2022/12/02 04:03:24;;;;;;;;;;;;;;;7.23;61.88;95450.47;5070722;28;20037;-63
2022/12/02 04:05:49;;;;;;;;;;;;;;;7.69;60.32;95444.84;5068652;28;20013;-63
2022/12/02 04:08:14;;;;;;;;;;;;;;;7.56;59.93;95440.97;5070346;28;20016;-63
2022/12/02 04:10:40;;;;;;;;;;;;;;;7.70;59.92;95430.53;5069610;28;20017;-63
2022/12/02 04:13:05;;;;;;;;;;;;;;;7.56;59.80;95435.66;5068931;28;20021;-64
2022/12/02 04:15:30;;;;;;;;;;;;;;;7.23;60.36;95433.81;5068686;28;20009;-64
2022/12/02 04:17:55;;;;;;;;;;;;;;;6.96;61.31;95440.34;5070243;28;20075;-64
2022/12/02 04:20:20;;;;;;;;;;;;;;;7.47;60.73;95432.06;5068910;28;20014;-65
2022/12/02 04:22:46;;;;;;;;;;;;;;;7.67;59.89;95433.72;5069298;28;20103;-63
2022/12/02 04:25:11;;;;;;;;;;;;;;;7.81;58.94;95425.94;5068616;28;20017;-63
2022/12/02 04:27:36;;;;;;;;;;;;;;;7.67;59.96;95425.78;5070207;28;20032;-63
2022/12/02 04:30:02;;;;;;;;;;;;;;;7.16;61.01;95430.66;5068845;28;20025;-63
2022/12/02 04:32:27;;;;;;;;;;;;;;;7.10;61.86;95424.63;5070390;28;20009;-63
2022/12/02 04:34:52;;;;;;;;;;;;;;;7.04;61.19;95425.72;5068989;28;20013;-64
2022/12/02 04:37:17;;;;;;;;;;;;;;;7.14;60.99;95430.16;5068331;28;20017;-63
2022/12/02 04:39:42;;;;;;;;;;;;;;;7.42;60.17;95418.06;5070010;28;20013;-63
2022/12/02 04:42:08;;;;;;;;;;;;;;;7.74;59.97;95423.63;5070099;28;20338;-64
2022/12/02 04:44:33;;;;;;;;;;;;;;;7.88;59.53;95423.75;5069228;28;20067;-63
2022/12/02 04:46:58;;;;;;;;;;;;;;;8.02;58.89;95423.88;5068328;28;20166;-64
2022/12/02 04:49:23;;;;;;;;;;;;;;;8.20;58.64;95419.75;5068366;28;20013;-64
2022/12/02 04:51:48;;;;;;;;;;;;;;;7.89;58.30;95417.41;5068180;28;20075;-64
2022/12/02 04:54:14;;;;;;;;;;;;;;;7.88;58.07;95431.69;5068447;28;20014;-63
2022/12/02 04:56:39;;;;;;;;;;;;;;;7.54;58.87;95421.16;5069445;28;20017;-64
2022/12/02 04:59:04;;;;;;;;;;;;;;;6.99;60.97;95417.81;5068570;28;20013;-64
2022/12/02 05:01:29;;;;;;;;;;;;;;;6.86;61.01;95421.06;5068705;28;20021;-63
2022/12/02 05:03:55;;;;;;;;;;;;;;;7.30;61.06;95421.06;5070216;28;20036;-64
2022/12/02 05:06:20;;;;;;;;;;;;;;;7.23;60.41;95416.09;5068348;28;20013;-64
2022/12/02 05:08:45;;;;;;;;;;;;;;;6.94;61.00;95423.16;5069957;28;20052;-65
2022/12/02 05:11:10;;;;;;;;;;;;;;;7.22;61.10;95419.00;5069660;28;20017;-63
2022/12/02 05:13:35;;;;;;;;;;;;;;;6.93;60.98;95419.72;5067814;28;20397;-64
2022/12/02 05:16:01;;;;;;;;;;;;;;;7.46;60.40;95411.13;5068347;28;20469;-64
2022/12/02 05:18:26;;;;;;;;;;;;;;;7.02;60.44;95417.28;5069568;28;20014;-64
2022/12/02 05:20:51;;;;;;;;;;;;;;;7.34;60.15;95416.00;5069722;28;20531;-64
2022/12/02 05:23:16;;;;;;;;;;;;;;;7.04;60.86;95418.59;5069623;28;20014;-63
2022/12/02 05:25:42;;;;;;;;;;;;;;;7.00;61.07;95409.59;5068415;28;20489;-64
2022/12/02 05:28:07;;;;;;;;;;;;;;;7.21;60.45;95410.25;5072224;28;20091;-63
2022/12/02 05:30:32;;;;;;;;;;;;;;;7.48;59.35;95409.03;5072279;28;20025;-64
2022/12/02 05:32:57;;;;;;;;;;;;;;;7.22;58.92;95409.22;5073605;28;20010;-64
2022/12/02 05:35:23;;;;;;;;;;;;;;;7.15;59.77;95411.38;5073332;28;20013;-64
2022/12/02 05:37:48;;;;;;;;;;;;;;;7.05;59.77;95414.06;5071626;28;20385;-64
2022/12/02 05:40:13;;;;;;;;;;;;;;;6.60;60.47;95415.13;5088931;28;20009;-63
2022/12/02 05:42:38;;;;;;;;;;;;;;;6.84;59.93;95412.63;5073428;28;20020;-63
2022/12/02 05:45:14;;;;;;;;;;;;;;;6.51;60.04;95410.41;5086734;28;20035;-63
2022/12/02 05:47:40;;;;;;;;;;;;;;;7.31;58.94;95419.97;5073506;28;20054;-63
2022/12/02 05:50:12;;;;;;;;;;;;;;;6.85;59.20;95412.34;5072617;28;20021;-63
2022/12/02 05:52:38;;;;;;;;;;;;;;;7.16;58.89;95410.28;5073294;28;20013;-63
2022/12/02 05:55:11;;;;;;;;;;;;;;;7.27;58.35;95411.03;5071494;28;20767;-64
2022/12/02 05:57:36;;;;;;;;;;;;;;;6.95;59.44;95409.63;5070947;28;20048;-64
2022/12/02 06:00:07;;;;;;;;;;;;;;;7.19;58.76;95412.41;5071629;28;20469;-64
2022/12/02 06:02:35;;;;;;;;;;;;;;;7.39;58.84;95418.63;5073135;28;20013;-63
2022/12/02 06:05:00;;;;;;;;;;;;;;;7.42;57.88;95413.56;5071306;28;20059;-64
2022/12/02 06:07:25;;;;;;;;;;;;;;;7.78;57.62;95414.06;5071111;28;20009;-63
2022/12/02 06:09:52;;;;;;;;;;;;;;;7.90;57.19;95416.31;5071503;28;20504;-64
2022/12/02 06:12:19;;;;;;;;;;;;;;;7.57;57.71;95415.28;5071520;28;20029;-64
2022/12/02 06:14:47;;;;;;;;;;;;;;;7.75;57.75;95404.00;5072668;28;20027;-68
2022/12/02 06:17:14;;;;;;;;;;;;;;;7.53;58.45;95416.94;5071376;28;20437;-68
2022/12/02 06:19:42;;;;;;;;;;;;;;;7.48;58.22;95412.47;5069115;28;20020;-67
2022/12/02 06:22:18;;;;;;;;;;;;;;;7.86;57.90;95411.88;5068813;28;20058;-67
2022/12/02 06:24:43;;;;;;;;;;;;;;;7.50;57.86;95404.22;5072521;28;20009;-63
2022/12/02 06:27:11;;;;;;;;;;;;;;;7.42;58.51;95410.94;5071033;28;20036;-63
2022/12/02 06:29:37;;;;;;;;;;;;;;;7.58;58.31;95413.44;5070980;28;20013;-63
2022/12/02 06:32:05;;;;;;;;;;;;;;;7.49;59.04;95414.03;5070594;28;20092;-64
2022/12/02 06:34:33;;;;;;;;;;;;;;;7.47;57.84;95407.44;5069982;28;20021;-64
2022/12/02 06:37:01;;;;;;;;;;;;;;;7.40;58.60;95414.91;5071364;28;20009;-62
2022/12/02 06:39:26;;;;;;;;;;;;;;;7.78;58.10;95410.63;5072034;28;20020;-65
2022/12/02 06:41:52;;;;;;;;;;;;;;;7.89;58.18;95411.31;5070934;28;20013;-64
2022/12/02 06:47:26;;;;;;;;;;;;;;;7.51;58.37;95413.75;5071958;28;20059;-64
2022/12/02 06:49:51;;;;;;;;;;;;;;;7.21;59.07;95415.56;5059646;28;20031;-66
2022/12/02 06:52:20;;;;;;;;;;;;;;;7.64;58.73;95410.47;5072022;28;20183;-63
2022/12/02 06:54:46;;;;;;;;;;;;;;;7.50;59.05;95412.19;5069516;28;20377;-66
2022/12/02 06:57:14;;;;;;;;;;;;;;;7.34;59.08;95418.66;5070054;28;20024;-66
2022/12/02 06:59:39;;;;;;;;;;;;;;;6.90;60.89;95416.81;5070215;28;20392;-64
2022/12/02 07:02:16;;;;;;;;;;;;;;;6.94;60.87;95423.16;5071971;28;20013;-65
2022/12/02 07:04:44;;;;;;;;;;;;;;;6.87;61.46;95414.72;5069824;28;20044;-66
2022/12/02 07:07:15;;;;;;;;;;;;;;;7.12;60.52;95425.16;5069959;28;20009;-65
2022/12/02 07:09:43;;;;;;;;;;;;;;;7.02;60.78;95418.06;5071601;28;20043;-65
2022/12/02 07:12:17;;;;;;;;;;;;;;;6.99;60.85;95412.53;5072148;28;20009;-67
2022/12/02 07:14:50;;;;;;;;;;;;;;;7.11;60.51;95412.97;5069347;28;20048;-67
2022/12/02 07:17:20;;;;;;;;;;;;;;;7.49;59.35;95410.59;5071668;28;20009;-64
2022/12/02 07:19:47;;;;;;;;;;;;;;;7.41;58.56;95416.47;5070012;28;20375;-65
2022/12/02 07:22:18;;;;;;;;;;;;;;;7.79;58.69;95417.50;5070064;28;20017;-66
2022/12/02 07:24:49;;;;;;;;;;;;;;;7.62;57.83;95412.59;5070496;28;20071;-67
2022/12/02 07:27:19;;;;;;;;;;;;;;;7.85;57.55;95415.59;5071273;28;20057;-66
2022/12/02 07:29:44;;;;;;;;;;;;;;;7.43;58.31;95409.06;5069715;28;20014;-64
2022/12/02 07:32:09;;;;;;;;;;;;;;;7.22;59.04;95417.16;5070231;28;20035;-65
2022/12/02 07:34:35;;;;;;;;;;;;;;;7.66;58.26;95413.63;5070199;28;20036;-64
2022/12/02 07:37:00;;;;;;;;;;;;;;;7.77;57.87;95414.31;5070501;28;20115;-65
2022/12/02 07:39:25;;;;;;;;;;;;;;;7.22;59.16;95417.16;5069539;28;20481;-64
2022/12/02 07:41:50;;;;;;;;;;;;;;;7.63;58.95;95408.91;5070945;28;20012;-68
2022/12/02 07:44:15;;;;;;;;;;;;;;;7.84;58.15;95424.59;5070799;28;20012;-70
2022/12/02 07:46:41;;;;;;;;;;;;;;;8.04;57.91;95416.47;5068345;28;20017;-65
2022/12/02 07:49:06;;;;;;;;;;;;;;;7.97;57.51;95418.63;5068513;28;20076;-66
2022/12/02 07:51:31;;;;;;;;;;;;;;;7.49;59.53;95429.91;5070795;28;20076;-63
2022/12/02 07:53:56;;;;;;;;;;;;;;;7.77;58.09;95417.75;5070668;28;20485;-66
2022/12/02 07:56:22;;;;;;;;;;;;;;;7.52;58.29;95424.09;5070637;28;20009;-63
2022/12/02 07:58:47;;;;;;;;;;;;;;;7.73;58.29;95414.09;5068968;28;20515;-65
2022/12/02 08:01:12;;;;;;;;;;;;;;;7.79;58.20;95418.28;5070110;28;20021;-64
2022/12/02 08:03:37;;;;;;;;;;;;;;;8.20;57.80;95415.22;5069210;28;20017;-65
2022/12/02 08:06:03;;;;;;;;;;;;;;;8.16;57.60;95419.50;5069031;28;20059;-67
2022/12/02 08:08:28;;;;;;;;;;;;;;;8.31;57.47;95421.22;5068867;28;20013;-66
2022/12/02 08:10:53;;;;;;;;;;;;;;;8.66;56.91;95414.72;5067988;28;20473;-66
2022/12/02 08:13:18;;;;;;;;;;;;;;;8.79;55.99;95408.72;5068871;28;20021;-65
2022/12/02 08:15:44;;;;;;;;;;;;;;;8.78;55.69;95414.31;5069976;28;20020;-64
2022/12/02 08:18:09;;;;;;;;;;;;;;;9.02;55.55;95414.25;5069054;28;20048;-65
2022/12/02 08:20:34;;;;;;;;;;;;;;;9.13;55.26;95410.38;5069077;28;20123;-66
2022/12/02 08:22:59;;;;;;;;;;;;;;;9.23;54.62;95414.75;5069002;28;20405;-65
2022/12/02 08:25:24;;;;;;;;;;;;;;;9.29;54.65;95413.59;5068490;28;20013;-67
2022/12/02 08:27:50;;;;;;;;;;;;;;;9.15;54.65;95408.22;5070062;28;20024;-67
2022/12/02 08:30:16;;;;;;;;;;;;;;;8.95;54.34;95411.16;5069993;28;20024;-66
2022/12/02 08:32:41;;;;;;;;;;;;;;;8.80;55.08;95415.63;5070321;28;20037;-67
2022/12/02 08:35:07;;;;;;;;;;;;;;;9.09;54.72;95412.03;5068612;28;20440;-66
2022/12/02 08:37:32;;;;;;;;;;;;;;;8.82;54.84;95410.81;5068951;28;20020;-66
2022/12/02 08:39:57;;;;;;;;;;;;;;;8.59;55.38;95407.09;5069851;28;20008;-66
2022/12/02 08:42:22;;;;;;;;;;;;;;;8.83;55.46;95415.03;5068933;28;20059;-66
2022/12/02 08:44:48;;;;;;;;;;;;;;;8.84;55.39;95411.28;5068096;28;20100;-66
2022/12/02 08:47:13;;;;;;;;;;;;;;;8.96;55.08;95410.09;5084508;28;20485;-65
2022/12/02 08:49:38;;;;;;;;;;;;;;;9.08;54.71;95415.75;5068348;28;20077;-65
2022/12/02 08:52:03;;;;;;;;;;;;;;;9.10;54.65;95413.59;5068789;28;20108;-65
2022/12/02 08:54:28;;;;;;;;;;;;;;;9.04;54.78;95412.09;5069801;28;20016;-65
2022/12/02 08:56:55;;;;;;;;;;;;;;;9.17;54.79;95413.25;5067151;28;20017;-66
2022/12/02 08:59:20;;;;;;;;;;;;;;;8.91;54.85;95402.22;5068515;28;20062;-66
2022/12/02 09:01:45;;;;;;;;;;;;;;;9.24;54.34;95403.84;5067872;28;20013;-67
2022/12/02 09:04:11;;;;;;;;;;;;;;;9.01;54.52;95399.41;5068986;28;20017;-64
2022/12/02 09:06:36;;;;;;;;;;;;;;;8.81;54.34;95347.44;5069700;28;20166;-66
2022/12/02 09:09:02;;;;;;;;;;;;;;;9.51;53.69;95402.38;5067660;28;20017;-65
2022/12/02 09:11:27;;;;;;;;;;;;;;;9.68;53.66;95393.88;5068054;28;20024;-65
2022/12/02 09:13:52;;;;;;;;;;;;;;;9.21;53.16;95407.06;5068301;28;20020;-66
2022/12/02 09:16:17;;;;;;;;;;;;;;;9.05;54.06;95408.34;5069597;28;20009;-66
2022/12/02 09:18:43;;;;;;;;;;;;;;;8.93;54.37;95400.84;5070116;28;20009;-65
2022/12/02 09:21:08;;;;;;;;;;;;;;;8.38;55.72;95400.47;5067573;28;20594;-65
2022/12/02 09:23:33;;;;;;;;;;;;;;;9.31;53.77;95398.94;5068103;28;20112;-66
2022/12/02 09:25:58;;;;;;;;;;;;;;;9.92;53.76;95402.47;5068269;28;20036;-67
2022/12/02 09:28:24;;;;;;;;;;;;;;;9.63;51.41;95398.19;5068460;28;20083;-66
2022/12/02 09:30:49;;;;;;;;;;;;;;;9.11;52.87;95399.28;5069478;28;20024;-66
2022/12/02 09:33:14;;;;;;;;;;;;;;;8.59;54.25;95391.19;5067529;28;20042;-65
2022/12/02 09:35:40;;;;;;;;;;;;;;;8.79;54.29;95398.09;5069279;28;20531;-65
2022/12/02 09:38:05;;;;;;;;;;;;;;;9.71;53.06;95395.94;5068114;28;20121;-66
2022/12/02 09:40:31;;;;;;;;;;;;;;;9.48;51.98;95398.44;5067558;28;20017;-66
2022/12/02 09:42:56;;;;;;;;;;;;;;;9.43;52.32;95398.53;5069857;28;20017;-65
2022/12/02 09:45:21;;;;;;;;;;;;;;;10.22;52.00;95387.06;5066659;28;20013;-66
2022/12/02 09:47:47;;;;;;;;;;;;;;;9.80;50.93;95389.66;5068213;28;20066;-66
2022/12/02 09:50:13;;;;;;;;;;;;;;;9.58;51.26;95386.88;5067980;28;20048;-66
2022/12/02 09:52:38;;;;;;;;;;;;;;;10.10;50.79;95388.34;5067533;28;20012;-67
2022/12/02 09:55:09;;;;;;;;;;;;;;;10.40;50.30;95375.56;5067689;28;20017;-66
2022/12/02 09:57:35;;;;;;;;;;;;;;;10.64;48.79;95375.34;5069512;28;20108;-65
2022/12/02 10:00:03;;;;;;;;;;;;;;;9.83;50.14;95381.13;5069463;28;20100;-64
2022/12/02 10:02:37;;;;;;;;;;;;;;;9.10;51.86;95384.41;5067941;28;20013;-65
2022/12/02 10:05:06;;;;;;;;;;;;;;;9.52;52.04;95380.84;5068534;28;20024;-65
2022/12/02 10:07:31;;;;;;;;;;;;;;;9.32;51.86;95374.00;5068007;28;20107;-65
2022/12/02 10:09:56;;;;;;;;;;;;;;;8.65;53.01;95381.34;5067832;28;20446;-66
2022/12/02 10:12:21;;;;;;;;;;;;;;;8.89;53.42;95372.50;5068801;28;20014;-65
2022/12/02 10:14:48;;;;;;;;;;;;;;;8.89;52.39;95370.66;5072216;28;20013;-66
2022/12/02 10:17:15;;;;;;;;;;;;;;;9.19;51.27;95371.28;5071566;28;20035;-66
2022/12/02 10:19:41;;;;;;;;;;;;;;;8.78;52.64;95370.00;5073091;28;20128;-66
2022/12/02 10:22:16;;;;;;;;;;;;;;;8.33;52.62;95371.34;5072804;28;20107;-65
2022/12/02 10:24:42;;;;;;;;;;;;;;;8.51;52.78;95372.50;5052694;28;20024;-65
2022/12/02 10:27:07;;;;;;;;;;;;;;;8.61;52.13;95363.63;5052165;28;20006;-66
2022/12/02 10:29:33;;;;;;;;;;;;;;;8.62;52.77;95362.53;5051195;28;20474;-66
2022/12/02 10:31:59;;;;;;;;;;;;;;;8.68;52.90;95359.53;5052483;28;20014;-64
2022/12/02 10:34:25;;;;;;;;;;;;;;;8.99;51.86;95362.53;5055316;28;20428;-66
2022/12/02 10:36:51;;;;;;;;;;;;;;;9.00;50.59;95358.81;5071923;28;20049;-65
2022/12/02 10:39:22;;;;;;;;;;;;;;;9.15;50.97;95357.00;5072327;28;20091;-66
2022/12/02 10:41:48;;;;;;;;;;;;;;;8.91;52.30;95357.13;5072555;28;20009;-66
2022/12/02 10:44:18;;;;;;;;;;;;;;;9.54;51.60;95352.13;5072628;28;20009;-66
2022/12/02 10:46:44;;;;;;;;;;;;;;;9.62;51.16;95356.78;5071414;28;20482;-66
2022/12/02 10:49:17;;;;;;;;;;;;;;;9.35;51.00;95349.50;5072050;28;20016;-66
2022/12/02 10:51:42;;;;;;;;;;;;;;;8.41;52.89;95343.47;5072281;28;20071;-66
2022/12/02 10:54:16;;;;;;;;;;;;;;;8.53;53.06;95351.78;5072220;28;20013;-66
2022/12/02 10:56:41;;;;;;;;;;;;;;;8.80;52.39;95351.13;5067083;28;20021;-66
2022/12/02 10:59:12;;;;;;;;;;;;;;;9.06;50.74;95351.59;5051830;28;20021;-66
2022/12/02 11:01:39;;;;;;;;;;;;;;;7.95;53.29;95343.97;5052108;28;20020;-66
2022/12/02 11:04:07;;;;;;;;;;;;;;;7.84;54.31;95337.22;5052023;28;20016;-66
2022/12/02 11:06:33;;;;;;;;;;;;;;;8.92;52.45;95342.78;5070167;28;20018;-66
2022/12/02 11:08:59;;;;;;;;;;;;;;;9.36;51.60;95342.31;5071654;28;20480;-66
2022/12/02 11:11:24;;;;;;;;;;;;;;;9.67;50.40;95337.28;5071957;28;20017;-66
2022/12/02 11:13:54;;;;;;;;;;;;;;;9.09;50.74;95325.25;5071740;28;20013;-66
2022/12/02 11:16:25;;;;;;;;;;;;;;;8.78;51.28;95332.88;5069183;28;20104;-67
2022/12/02 11:18:55;;;;;;;;;;;;;;;7.52;54.91;95336.72;5071418;28;20382;-67
2022/12/02 11:21:27;;;;;;;;;;;;;;;8.34;53.77;95331.31;5070269;28;20013;-66
2022/12/02 11:24:11;;;;;;;;;;;;;;;8.42;53.87;95329.91;5069582;28;20017;-65
2022/12/02 11:26:55;;;;;;;;;;;;;;;9.02;52.06;95330.13;5071226;28;20052;-65
2022/12/02 11:29:20;;;;;;;;;;;;;;;9.29;51.24;95328.66;5069176;28;20013;-65
2022/12/02 11:32:01;;;;;;;;;;;;;;;8.98;51.28;95328.34;5069917;28;20479;-65
2022/12/02 11:34:39;;;;;;;;;;;;;;;8.08;53.24;95332.69;5071500;28;20009;-66
2022/12/02 11:37:23;;;;;;;;;;;;;;;7.93;53.95;95328.34;5069594;28;20009;-66
2022/12/02 11:39:48;;;;;;;;;;;;;;;8.18;53.55;95327.25;5068857;28;20048;-65
2022/12/02 11:42:19;;;;;;;;;;;;;;;8.83;52.70;95324.84;5069877;28;20036;-64
2022/12/02 11:44:44;;;;;;;;;;;;;;;9.25;51.22;95325.78;5071191;28;20044;-66
2022/12/02 11:47:29;;;;;;;;;;;;;;;9.63;50.67;95321.16;5070622;28;20048;-65
2022/12/02 11:50:15;;;;;;;;;;;;;;;9.47;49.64;95319.06;5070357;28;20025;-65
2022/12/02 11:52:48;;;;;;;;;;;;;;;9.19;50.83;95316.34;5054643;28;20021;-65
2022/12/02 11:55:18;;;;;;;;;;;;;;;9.57;51.11;95316.22;5070073;28;20064;-66
2022/12/02 11:57:52;;;;;;;;;;;;;;;9.75;50.47;95309.28;5069741;28;20099;-66
2022/12/02 12:00:17;;;;;;;;;;;;;;;9.63;49.91;95312.41;5070655;28;20060;-65
2022/12/02 12:02:42;;;;;;;;;;;;;;;9.77;49.98;95304.44;5070964;28;20569;-65
2022/12/02 12:05:08;;;;;;;;;;;;;;;9.87;49.83;95306.91;5068526;28;20053;-65
2022/12/02 12:07:44;;;;;;;;;;;;;;;9.94;50.01;95303.88;5069336;28;20100;-66
2022/12/02 12:10:29;;;;;;;;;;;;;;;9.57;49.27;95310.91;5068255;28;20024;-66
2022/12/02 12:13:10;;;;;;;;;;;;;;;9.76;49.50;95301.00;5070572;28;20009;-65
2022/12/02 12:15:55;;;;;;;;;;;;;;;9.94;49.24;95296.69;5070067;28;20697;-65
2022/12/02 12:18:55;;;;;;;;;;;;;;;10.13;49.65;95296.56;5050576;28;20100;-65
2022/12/02 12:21:30;;;;;;;;;;;;;;;10.22;49.91;95294.78;5011428;28;20017;-66
2022/12/02 12:24:15;;;;;;;;;;;;;;;10.34;49.44;95292.47;5059535;28;20016;-65
2022/12/02 12:26:40;;;;;;;;;;;;;;;10.39;49.34;95295.00;5049651;28;20025;-66
2022/12/02 12:29:05;;;;;;;;;;;;;;;10.48;48.57;95286.31;5065623;28;20017;-65
2022/12/02 12:31:30;;;;;;;;;;;;;;;10.49;49.54;95287.88;5050049;28;20024;-66
2022/12/02 12:33:56;;;;;;;;;;;;;;;10.50;50.69;95284.16;5065690;28;20426;-65
2022/12/02 12:36:21;;;;;;;;;;;;;;;10.55;50.22;95286.72;5069576;28;20559;-65
2022/12/02 12:38:46;;;;;;;;;;;;;;;10.62;51.25;95277.22;5068883;28;20020;-65
2022/12/02 12:41:11;;;;;;;;;;;;;;;10.71;51.40;95287.94;5070032;28;20077;-65
2022/12/02 12:43:37;;;;;;;;;;;;;;;10.77;50.72;95278.75;5068415;28;20059;-65
2022/12/02 12:46:02;;;;;;;;;;;;;;;10.67;49.86;95271.00;5068495;28;20480;-65
2022/12/02 12:48:27;;;;;;;;;;;;;;;10.74;50.82;95276.69;5068945;28;20020;-65
2022/12/02 12:50:52;;;;;;;;;;;;;;;10.68;50.85;95283.19;5068349;28;20112;-65
2022/12/02 12:53:17;;;;;;;;;;;;;;;10.58;50.97;95276.22;5068675;28;20110;-65
2022/12/02 12:55:43;;;;;;;;;;;;;;;10.13;51.24;95207.00;5067621;28;20059;-66
2022/12/02 12:58:08;;;;;;;;;;;;;;;10.57;51.37;95273.88;5068492;28;20017;-65
2022/12/02 13:00:33;;;;;;;;;;;;;;;10.51;51.82;95270.56;5069893;28;20473;-65